Date,TemperatureHighF,TemperatureAvgF,TemperatureLowF,DewpointHighF,DewpointAvgF,DewpointLowF,HumidityHigh,HumidityAvg,HumidityLow,PressureMaxIn,PressureMinIn,WindSpeedMaxMPH,WindSpeedAvgMPH,GustSpeedMaxMPH,PrecipitationSumIn
2013-2-1,42.9,40.1,35.8,41.1,39.3,35.8,100,97,89,30.36,30.28,4,0,4,0.00
2013-2-2,42.1,39.0,35.6,39.7,37.8,35.6,100,95,91,30.34,30.17,5,0,5,0.00
2013-2-3,43.9,39.6,34.3,42.1,39.0,34.3,100,98,88,30.23,30.10,5,0,5,0.08
2013-2-4,41.6,39.9,38.0,41.6,39.8,38.0,100,100,97,30.11,29.77,11,0,11,0.00
2013-2-5,45.7,40.5,36.6,42.6,39.5,36.6,100,96,84,29.81,29.69,6,0,6,0.27
2013-2-6,41.5,38.8,36.8,41.3,38.6,36.8,100,99,96,29.91,29.59,6,0,6,0.02
2013-2-7,42.5,36.4,31.9,37.9,34.7,30.1,98,94,66,30.15,29.59,17,1,17,0.05
2013-2-8,40.9,35.8,31.5,35.8,32.8,30.0,97,89,77,30.24,30.15,10,1,10,0.00
2013-2-9,41.2,39.5,36.2,41.2,37.7,32.8,100,94,75,30.28,30.19,10,0,10,0.01
2013-2-10,43.3,39.2,35.5,38.0,36.9,34.5,100,92,75,30.32,30.26,10,0,10,0.00
2013-2-11,43.2,40.1,36.6,43.1,39.2,34.2,100,97,89,30.28,30.24,9,0,9,0.02
2013-2-12,48.3,41.5,38.2,42.7,40.0,38.2,100,94,80,30.32,30.18,14,0,14,0.00
2013-2-13,44.8,41.5,38.2,41.1,38.3,33.8,97,88,74,30.42,30.22,13,0,13,0.00
2013-2-14,43.2,41.1,39.3,42.9,40.8,39.3,100,99,97,30.50,30.40,5,0,5,0.10
2013-2-15,43.2,41.1,38.5,43.2,41.1,38.5,100,100,100,30.50,30.11,3,0,3,0.03
2013-2-16,47.1,41.2,37.6,41.6,37.0,32.6,100,86,62,30.11,30.05,22,4,22,0.01
2013-2-17,41.5,37.2,32.8,37.4,33.8,30.6,95,88,74,30.15,30.03,12,1,12,0.02
2013-2-18,41.9,36.7,33.1,36.4,34.0,31.7,96,90,75,30.03,29.64,7,0,7,0.00
2013-2-19,40.8,36.7,32.1,37.8,34.3,31.3,98,91,81,29.94,29.64,10,1,10,0.03
2013-2-20,41.5,36.0,31.6,36.3,33.7,30.3,98,91,78,29.96,29.90,15,1,15,0.03
2013-2-21,42.9,38.1,34.3,39.1,35.9,32.5,95,92,84,29.98,29.90,10,0,10,0.01
2013-2-22,45.4,38.2,34.1,42.8,35.9,28.2,100,92,69,29.94,29.55,20,3,20,0.37
2013-2-23,43.3,39.2,34.9,33.5,31.3,25.6,91,73,61,30.27,29.77,31,5,31,0.04
2013-2-24,47.3,40.2,36.2,37.2,33.3,28.4,91,76,60,30.28,29.75,6,0,6,0.01
2013-2-25,44.5,40.8,37.2,38.8,30.2,21.0,96,68,41,30.15,29.73,33,7,33,0.13
2013-2-26,42.3,36.4,32.2,35.0,30.8,24.7,96,80,70,30.24,30.05,13,1,13,0.04
2013-2-27,43.6,38.3,34.1,38.5,35.1,32.5,100,89,76,30.22,30.09,10,0,10,0.01
2013-2-28,44.3,40.6,37.2,44.3,39.8,33.4,100,97,86,30.19,30.07,10,0,10,0.22